createdAt,value
2022-09-07T00:00:17.318Z,20.52
2022-09-07T00:02:47.525Z,19.40
2022-09-07T00:05:17.995Z,21.75
2022-09-07T00:07:48.524Z,19.82
2022-09-07T00:10:18.848Z,21.75
2022-09-07T00:12:49.495Z,19.32
2022-09-07T00:15:20.197Z,20.90
2022-09-07T00:17:50.329Z,24.32
2022-09-07T00:20:20.732Z,19.40
2022-09-07T00:22:51.252Z,20.05
2022-09-07T00:25:21.314Z,21.12
2022-09-07T00:27:51.537Z,20.50
2022-09-07T00:30:21.750Z,21.35
2022-09-07T00:32:52.060Z,20.68
2022-09-07T00:35:22.214Z,20.35
2022-09-07T00:37:52.330Z,23.05
2022-09-07T00:40:23.155Z,20.65
2022-09-07T00:42:53.606Z,21.00
2022-09-07T00:45:24.128Z,21.40
2022-09-07T00:47:55.779Z,24.00
2022-09-07T00:50:27.619Z,26.85
2022-09-07T00:52:59.287Z,22.00
2022-09-07T00:55:29.950Z,22.95
2022-09-07T00:58:00.796Z,21.35
2022-09-07T01:00:31.305Z,23.32
2022-09-07T01:03:03.120Z,22.95
2022-09-07T01:05:35.417Z,21.02
2022-09-07T01:08:06.620Z,21.27
2022-09-07T01:10:37.177Z,22.40
2022-09-07T01:13:07.730Z,23.18
2022-09-07T01:15:37.519Z,23.80
2022-09-07T01:18:08.986Z,23.73
2022-09-07T01:20:39.513Z,26.20
2022-09-07T01:23:10.823Z,24.05
2022-09-07T01:25:42.148Z,25.37
2022-09-07T01:28:13.493Z,25.88
2022-09-07T01:30:45.460Z,23.98
2022-09-07T01:33:16.914Z,23.62
2022-09-07T01:35:48.639Z,27.32
2022-09-07T01:38:20.485Z,22.98
2022-09-07T01:40:51.901Z,23.92
2022-09-07T01:43:23.245Z,23.05
2022-09-07T01:45:55.076Z,22.58
2022-09-07T01:48:25.369Z,23.60
2022-09-07T01:50:57.039Z,24.05
2022-09-07T01:53:27.348Z,25.27
2022-09-07T01:55:58.909Z,22.85
2022-09-07T01:58:30.364Z,23.12
2022-09-07T02:01:03.007Z,24.55
2022-09-07T02:03:34.444Z,23.15
2022-09-07T02:06:06.151Z,25.20
2022-09-07T02:08:37.998Z,26.20
2022-09-07T02:11:09.395Z,20.45
2022-09-07T02:13:40.876Z,21.17
2022-09-07T02:16:10.878Z,22.05
2022-09-07T02:18:42.222Z,21.68
2022-09-07T02:21:13.617Z,23.35
2022-09-07T02:23:45.088Z,21.23
2022-09-07T02:26:16.603Z,21.23
2022-09-07T02:28:46.916Z,19.95
2022-09-07T02:31:17.531Z,22.75
2022-09-07T02:33:48.564Z,20.52
2022-09-07T02:36:20.375Z,19.82
2022-09-07T02:38:50.694Z,21.12
2022-09-07T02:41:22.255Z,19.73
2022-09-07T02:43:55.701Z,21.52
2022-09-07T02:46:27.174Z,21.48
2022-09-07T02:48:59.174Z,21.07
2022-09-07T02:51:30.549Z,19.25
2022-09-07T02:54:01.873Z,18.92
2022-09-07T02:56:33.152Z,23.50
2022-09-07T02:59:04.791Z,20.40
2022-09-07T03:01:36.338Z,22.95
2022-09-07T03:04:06.373Z,20.92
2022-09-07T03:06:37.647Z,19.10
2022-09-07T03:09:08.971Z,18.48
2022-09-07T03:11:39.497Z,18.37
2022-09-07T03:14:10.906Z,17.52
2022-09-07T03:16:41.282Z,18.05
2022-09-07T03:19:11.378Z,18.73
2022-09-07T03:21:41.610Z,17.48
2022-09-07T03:24:11.890Z,16.95
2022-09-07T03:26:43.148Z,17.30
2022-09-07T03:29:13.508Z,17.05
2022-09-07T03:31:43.610Z,22.05
2022-09-07T03:34:14.022Z,17.82
2022-09-07T03:36:44.145Z,19.02
2022-09-07T03:39:15.188Z,18.12
2022-09-07T03:41:45.560Z,17.82
2022-09-07T03:44:15.660Z,17.62
2022-09-07T03:46:45.790Z,21.15
2022-09-07T03:49:17.925Z,19.40
2022-09-07T03:51:48.147Z,17.60
2022-09-07T03:54:18.258Z,17.80
2022-09-07T03:56:48.481Z,17.75
2022-09-07T03:59:18.624Z,17.10
2022-09-07T04:01:48.789Z,17.37
2022-09-07T04:04:19.083Z,16.93
2022-09-07T04:06:49.680Z,17.95
2022-09-07T04:09:20.206Z,16.57
2022-09-07T04:11:50.656Z,17.50
2022-09-07T04:14:20.960Z,20.00
2022-09-07T04:16:52.038Z,15.83
2022-09-07T04:19:22.170Z,16.97
2022-09-07T04:21:52.799Z,18.70
2022-09-07T04:24:22.909Z,16.30
2022-09-07T04:26:53.666Z,17.98
2022-09-07T04:29:23.872Z,16.00
2022-09-07T04:31:53.888Z,16.37
2022-09-07T04:34:24.379Z,16.57
2022-09-07T04:36:54.600Z,17.32
2022-09-07T04:39:25.129Z,17.07
2022-09-07T04:41:56.077Z,17.02
2022-09-07T04:44:26.468Z,14.87
2022-09-07T04:46:56.513Z,16.62
2022-09-07T04:49:27.042Z,18.30
2022-09-07T04:52:16.423Z,17.50
2022-09-07T04:54:47.065Z,15.80
2022-09-07T04:57:17.585Z,15.98
2022-09-07T04:59:48.026Z,16.82
2022-09-07T05:02:18.496Z,19.10
2022-09-07T05:04:48.662Z,18.67
2022-09-07T05:07:18.798Z,17.02
2022-09-07T05:09:49.362Z,17.82
2022-09-07T05:12:19.844Z,17.90
2022-09-07T05:14:50.370Z,19.00
2022-09-07T05:17:21.117Z,18.92
2022-09-07T05:19:51.122Z,17.87
2022-09-07T05:22:21.566Z,16.02
2022-09-07T05:24:52.142Z,18.00
2022-09-07T05:27:22.260Z,16.40
2022-09-07T05:30:08.251Z,16.02
2022-09-07T05:32:24.190Z,18.10
2022-09-07T05:34:55.125Z,15.65
2022-09-07T05:37:25.666Z,18.65
2022-09-07T05:39:57.504Z,16.23
2022-09-07T05:42:28.070Z,16.82
2022-09-07T05:44:58.584Z,17.82
2022-09-07T05:47:29.073Z,16.17
2022-09-07T05:49:59.534Z,16.02
2022-09-07T05:52:29.863Z,16.55
2022-09-07T05:55:19.260Z,16.37
2022-09-07T05:57:32.099Z,17.25
2022-09-07T06:00:02.223Z,15.48
2022-09-07T06:02:34.506Z,16.55
2022-09-07T06:05:04.035Z,16.27
2022-09-07T06:07:34.651Z,15.58
2022-09-07T06:12:36.606Z,15.98
2022-09-07T06:15:07.028Z,16.85
2022-09-07T06:17:37.239Z,18.17
2022-09-07T06:20:08.530Z,15.13
2022-09-07T06:22:39.316Z,18.45
2022-09-07T06:25:09.917Z,15.90
2022-09-07T06:27:40.730Z,15.58
2022-09-07T06:30:11.581Z,16.75
2022-09-07T06:35:12.975Z,15.85
2022-09-07T06:37:43.820Z,16.52
2022-09-07T06:40:14.293Z,18.00
2022-09-07T06:42:44.952Z,16.97
2022-09-07T06:45:14.986Z,15.95
2022-09-07T06:47:45.501Z,14.55
2022-09-07T06:50:16.323Z,14.13
2022-09-07T06:55:18.717Z,15.08
2022-09-07T06:57:49.049Z,15.75
2022-09-07T07:00:19.275Z,17.57
2022-09-07T07:02:49.345Z,16.20
2022-09-07T07:05:19.400Z,19.32
2022-09-07T07:07:49.921Z,14.65
2022-09-07T07:10:24.481Z,15.40
2022-09-07T07:12:53.227Z,14.73
2022-09-07T07:15:23.761Z,15.18
2022-09-07T07:17:59.092Z,16.60
2022-09-07T07:20:26.156Z,15.55
2022-09-07T07:22:56.806Z,15.40
2022-09-07T07:25:27.338Z,15.83
2022-09-07T07:27:57.678Z,17.57
2022-09-07T07:30:28.127Z,15.45
2022-09-07T07:32:59.971Z,14.70
2022-09-07T07:35:30.104Z,15.13
2022-09-07T07:40:34.081Z,16.20
2022-09-07T07:43:03.689Z,17.37
2022-09-07T07:48:06.380Z,16.23
2022-09-07T07:50:37.329Z,15.55
2022-09-07T07:55:46.544Z,15.20
2022-09-07T07:58:10.897Z,15.60
2022-09-07T08:00:56.660Z,16.12
2022-09-07T08:03:12.346Z,15.78
2022-09-07T08:05:42.659Z,16.00
2022-09-07T08:08:13.023Z,15.28
2022-09-07T08:10:43.291Z,16.32
2022-09-07T08:13:13.286Z,18.32
2022-09-07T08:15:45.030Z,17.17
2022-09-07T08:18:15.935Z,16.60
2022-09-07T08:20:46.311Z,16.67
2022-09-07T08:23:16.530Z,15.95
2022-09-07T08:25:48.131Z,15.58
2022-09-07T08:28:18.409Z,16.07
2022-09-07T08:30:48.720Z,15.45
2022-09-07T08:33:19.282Z,18.48
2022-09-07T08:35:51.048Z,16.62
2022-09-07T08:38:21.232Z,17.52
2022-09-07T08:40:51.426Z,16.45
2022-09-07T08:43:22.704Z,17.62
2022-09-07T08:45:54.481Z,17.60
2022-09-07T08:48:25.730Z,18.00
2022-09-07T08:50:55.990Z,18.45
2022-09-07T08:53:27.037Z,19.07
2022-09-07T08:55:58.782Z,18.42
2022-09-07T08:58:48.677Z,19.35
2022-09-07T09:03:34.913Z,19.67
2022-09-07T09:06:07.133Z,18.77
2022-09-07T09:08:38.994Z,18.85
2022-09-07T09:11:10.653Z,19.80
2022-09-07T09:13:42.316Z,19.15
2022-09-07T09:16:13.901Z,18.73
2022-09-07T09:19:03.129Z,18.15
2022-09-07T09:21:33.426Z,18.65
2022-09-07T09:24:04.660Z,18.35
2022-09-07T09:26:36.142Z,18.27
2022-09-07T09:29:08.575Z,21.15
2022-09-07T09:31:38.989Z,18.87
2022-09-07T09:34:09.171Z,19.35
2022-09-07T09:36:40.438Z,18.05
2022-09-07T09:39:12.176Z,19.25
2022-09-07T09:41:42.927Z,19.77
2022-09-07T09:44:14.568Z,19.52
2022-09-07T09:46:47.218Z,18.67
2022-09-07T09:49:18.753Z,19.02
2022-09-07T09:54:24.277Z,19.48
2022-09-07T09:56:54.554Z,21.90
2022-09-07T10:04:32.281Z,21.37
2022-09-07T10:07:03.609Z,20.50
2022-09-07T10:09:37.994Z,20.17
2022-09-07T10:12:08.354Z,19.57
2022-09-07T10:14:40.158Z,20.60
2022-09-07T10:17:11.929Z,19.98
2022-09-07T10:19:43.744Z,21.82
2022-09-07T10:22:15.014Z,21.80
2022-09-07T10:24:45.203Z,20.82
2022-09-07T10:27:16.451Z,21.02
2022-09-07T10:29:46.561Z,20.82
2022-09-07T10:32:17.687Z,21.23
2022-09-07T10:34:49.120Z,20.35
2022-09-07T10:37:20.568Z,23.47
2022-09-07T10:39:51.837Z,20.20
2022-09-07T10:42:23.567Z,22.37
2022-09-07T10:44:55.295Z,23.38
2022-09-07T10:47:26.750Z,25.77
2022-09-07T10:52:30.888Z,22.13
2022-09-07T10:55:02.343Z,21.87
2022-09-07T10:57:34.030Z,23.52
2022-09-07T11:00:09.880Z,21.97
2022-09-07T11:05:14.610Z,23.67
2022-09-07T11:07:44.234Z,24.47
2022-09-07T11:10:15.588Z,24.60
2022-09-07T11:12:46.979Z,22.55
2022-09-07T11:15:18.582Z,22.82
2022-09-07T11:17:53.052Z,22.80
2022-09-07T11:20:22.610Z,23.22
2022-09-07T11:22:54.162Z,23.50
2022-09-07T11:25:32.639Z,23.30
2022-09-07T11:27:58.184Z,24.07
2022-09-07T11:30:29.564Z,23.50
2022-09-07T11:33:01.458Z,23.38
2022-09-07T11:35:33.082Z,21.77
2022-09-07T11:38:04.945Z,25.37
2022-09-07T11:40:36.416Z,22.70
2022-09-07T11:43:10.780Z,22.42
2022-09-07T11:45:39.126Z,23.25
2022-09-07T11:48:10.725Z,27.42
2022-09-07T11:50:42.984Z,25.05
2022-09-07T11:53:14.465Z,22.35
2022-09-07T11:55:46.219Z,25.90
2022-09-07T11:58:17.993Z,23.73
2022-09-07T12:00:49.572Z,22.13
2022-09-07T12:03:22.746Z,23.45
2022-09-07T12:05:52.786Z,23.12
2022-09-07T12:08:24.042Z,23.70
2022-09-07T12:10:55.836Z,25.37
2022-09-07T12:13:27.120Z,23.18
2022-09-07T12:15:56.988Z,27.00
2022-09-07T12:18:28.389Z,26.40
2022-09-07T12:20:58.726Z,24.77
2022-09-07T12:23:29.978Z,26.20
2022-09-07T12:26:01.384Z,28.60
2022-09-07T12:28:31.222Z,24.40
2022-09-07T12:31:02.478Z,26.95
2022-09-07T12:33:33.875Z,28.62
2022-09-07T12:36:04.547Z,30.10
2022-09-07T12:38:35.571Z,27.87
2022-09-07T12:41:06.605Z,25.57
2022-09-07T12:43:38.284Z,27.48
2022-09-07T12:46:09.564Z,25.72
2022-09-07T12:48:42.258Z,27.20
2022-09-07T12:51:13.688Z,25.92
2022-09-07T12:54:03.199Z,26.90
2022-09-07T12:56:34.664Z,28.80
2022-09-07T12:59:06.209Z,26.07
2022-09-07T13:01:37.849Z,30.32
2022-09-07T13:04:09.174Z,28.83
2022-09-07T13:09:13.142Z,27.45
2022-09-07T13:11:43.382Z,26.23
2022-09-07T13:14:15.732Z,26.15
2022-09-07T13:19:19.758Z,31.50
2022-09-07T13:21:51.062Z,26.65
2022-09-07T13:26:53.606Z,28.73
2022-09-07T13:29:24.848Z,27.80
2022-09-07T13:31:54.611Z,27.50
2022-09-07T13:34:26.013Z,27.37
2022-09-07T13:36:56.192Z,29.87
2022-09-07T13:39:26.710Z,27.87
2022-09-07T13:41:58.367Z,31.05
2022-09-07T13:44:30.094Z,30.60
2022-09-07T13:47:01.455Z,30.12
2022-09-07T13:49:32.794Z,30.08
2022-09-07T13:52:04.250Z,28.17
2022-09-07T13:54:34.034Z,29.23
2022-09-07T13:57:03.673Z,28.25
2022-09-07T13:59:35.531Z,36.17
2022-09-07T14:02:05.956Z,31.75
2022-09-07T14:04:37.359Z,30.90
2022-09-07T14:07:08.621Z,29.48
2022-09-07T14:09:38.931Z,29.95
2022-09-07T14:12:10.356Z,29.87
2022-09-07T14:14:40.468Z,30.45
2022-09-07T14:17:11.719Z,32.40
2022-09-07T14:19:41.457Z,33.60
2022-09-07T14:22:12.952Z,31.87
2022-09-07T14:24:44.409Z,35.95
2022-09-07T14:27:16.038Z,33.40
2022-09-07T14:29:46.265Z,32.67
2022-09-07T14:32:17.513Z,33.50
2022-09-07T14:34:48.053Z,35.30
2022-09-07T14:37:20.953Z,36.38
2022-09-07T14:39:52.353Z,34.13
2022-09-07T14:42:23.773Z,32.08
2022-09-07T14:44:56.505Z,31.05
2022-09-07T14:47:29.457Z,35.63
2022-09-07T14:50:02.308Z,33.45
2022-09-07T14:52:35.826Z,30.57
2022-09-07T14:55:06.462Z,33.33
2022-09-07T14:57:36.771Z,31.73
2022-09-07T15:00:08.207Z,31.07
2022-09-07T15:02:39.056Z,31.65
2022-09-07T15:05:10.456Z,31.20
2022-09-07T15:07:41.997Z,34.40
2022-09-07T15:10:13.358Z,32.00
2022-09-07T15:12:45.295Z,31.62
2022-09-07T15:15:16.524Z,30.60
2022-09-07T15:17:47.054Z,31.27
2022-09-07T15:20:18.389Z,31.62
2022-09-07T15:22:48.582Z,29.98
2022-09-07T15:25:18.596Z,31.45
2022-09-07T15:27:48.573Z,30.68
2022-09-07T15:30:18.774Z,32.45
2022-09-07T15:32:49.488Z,29.75
2022-09-07T15:35:19.528Z,30.25
2022-09-07T15:38:05.845Z,30.70
2022-09-07T15:40:22.528Z,30.00
2022-09-07T15:43:00.330Z,30.00
2022-09-07T15:45:24.198Z,27.85
2022-09-07T15:47:54.642Z,28.67
2022-09-07T15:50:24.871Z,30.17
2022-09-07T15:52:55.044Z,33.75
2022-09-07T15:55:26.912Z,29.42
2022-09-07T15:58:10.740Z,28.25
2022-09-07T16:00:28.558Z,29.15
2022-09-07T16:03:07.471Z,29.12
2022-09-07T16:05:31.350Z,30.88
2022-09-07T16:10:34.209Z,28.98
2022-09-07T16:13:11.108Z,30.10
2022-09-07T16:15:36.321Z,34.58
2022-09-07T16:18:06.586Z,30.45
2022-09-07T16:20:38.235Z,32.78
2022-09-07T16:23:16.133Z,32.15
2022-09-07T16:25:40.273Z,31.85
2022-09-07T16:28:10.426Z,32.73
2022-09-07T16:30:41.845Z,33.18
2022-09-07T16:33:12.138Z,33.18
2022-09-07T16:35:42.261Z,33.98
2022-09-07T16:40:44.406Z,33.13
2022-09-07T16:43:14.708Z,33.63
2022-09-07T16:48:16.206Z,34.88
2022-09-07T16:50:47.935Z,34.27
2022-09-07T16:53:17.942Z,35.43
2022-09-07T16:55:48.131Z,34.10
2022-09-07T17:00:51.214Z,33.85
2022-09-07T17:03:21.224Z,34.35
2022-09-07T17:05:51.755Z,35.05
2022-09-07T17:08:22.057Z,34.18
2022-09-07T17:10:52.067Z,33.75
2022-09-07T17:13:22.360Z,32.70
2022-09-07T17:15:52.764Z,35.75
2022-09-07T17:19:28.858Z,31.73
2022-09-07T17:20:55.383Z,32.45
2022-09-07T17:23:25.862Z,33.00
2022-09-07T17:25:58.505Z,33.48
2022-09-07T17:28:29.247Z,32.58
2022-09-07T17:31:01.761Z,32.40
2022-09-07T17:33:31.875Z,29.75
2022-09-07T17:36:03.144Z,31.45
2022-09-07T17:41:06.311Z,30.85
2022-09-07T17:43:44.801Z,33.05
2022-09-07T17:46:08.802Z,32.13
2022-09-07T17:48:39.363Z,33.33
2022-09-07T17:51:11.086Z,31.35
2022-09-07T17:54:12.944Z,32.15
2022-09-07T17:56:37.983Z,36.88
2022-09-07T18:01:40.450Z,34.25
2022-09-07T18:04:11.341Z,35.52
2022-09-07T18:06:42.416Z,34.58
2022-09-07T18:09:12.870Z,34.78
2022-09-07T18:11:48.741Z,32.13
2022-09-07T18:14:15.595Z,31.33
2022-09-07T18:16:46.489Z,33.13
2022-09-07T18:19:16.931Z,31.48
2022-09-07T18:21:49.174Z,31.10
2022-09-07T18:24:20.690Z,33.92
2022-09-07T18:26:51.725Z,33.48
2022-09-07T18:29:29.262Z,34.30
2022-09-07T18:31:55.605Z,35.13
2022-09-07T18:34:26.337Z,34.40
2022-09-07T18:36:56.319Z,34.63
2022-09-07T18:39:27.456Z,32.85
2022-09-07T18:41:57.702Z,33.80
2022-09-07T18:46:59.373Z,33.55
2022-09-07T18:49:29.648Z,33.40
2022-09-07T18:54:31.734Z,32.90
2022-09-07T18:57:01.855Z,32.88
2022-09-07T18:59:31.981Z,34.25
2022-09-07T19:02:05.045Z,36.10
2022-09-07T19:07:06.533Z,32.80
2022-09-07T19:09:36.556Z,32.75
2022-09-07T19:12:07.083Z,29.72
2022-09-07T19:14:37.269Z,28.65
2022-09-07T19:17:07.426Z,29.10
2022-09-07T19:19:37.539Z,28.67
2022-09-07T19:22:07.700Z,29.30
2022-09-07T19:24:39.332Z,30.62
2022-09-07T19:27:11.977Z,27.80
2022-09-07T19:29:41.249Z,28.95
2022-09-07T19:32:12.751Z,29.75
2022-09-07T19:34:44.818Z,29.10
2022-09-07T19:37:15.655Z,28.35
2022-09-07T19:39:46.200Z,27.67
2022-09-07T19:42:16.613Z,25.32
2022-09-07T19:44:46.834Z,25.30
2022-09-07T19:47:17.433Z,24.85
2022-09-07T19:49:48.828Z,25.05
2022-09-07T19:52:18.922Z,25.23
2022-09-07T19:54:51.756Z,31.10
2022-09-07T19:57:23.498Z,31.70
2022-09-07T19:59:54.825Z,29.25
2022-09-07T20:02:25.315Z,28.95
2022-09-07T20:04:56.309Z,29.18
2022-09-07T20:07:26.378Z,30.17
2022-09-07T20:09:59.339Z,28.30
2022-09-07T20:12:29.669Z,28.57
2022-09-07T20:14:59.803Z,26.73
2022-09-07T20:17:35.370Z,27.27
2022-09-07T20:20:07.862Z,27.27
2022-09-07T20:22:38.042Z,28.07
2022-09-07T20:25:12.589Z,28.42
2022-09-07T20:27:39.861Z,27.42
2022-09-07T20:30:10.285Z,25.48
2022-09-07T20:32:42.864Z,26.90
2022-09-07T20:35:14.739Z,24.82
2022-09-07T20:37:46.000Z,27.25
2022-09-07T20:40:19.567Z,27.13
2022-09-07T20:42:51.335Z,27.07
2022-09-07T20:45:21.909Z,27.05
2022-09-07T20:47:51.983Z,28.83
2022-09-07T20:50:22.427Z,29.25
2022-09-07T20:52:53.452Z,30.92
2022-09-07T20:55:26.208Z,31.57
2022-09-07T20:57:57.686Z,33.55
2022-09-07T21:00:33.661Z,29.07
2022-09-07T21:03:03.764Z,29.98
2022-09-07T21:05:35.930Z,30.52
2022-09-07T21:08:06.373Z,31.35
2022-09-07T21:10:39.944Z,29.55
2022-09-07T21:13:11.083Z,29.80
2022-09-07T21:15:41.883Z,30.80
2022-09-07T21:18:13.185Z,31.87
2022-09-07T21:21:02.625Z,31.45
2022-09-07T21:23:20.602Z,30.60
2022-09-07T21:25:53.453Z,33.00
2022-09-07T21:28:24.882Z,31.77
2022-09-07T21:30:58.859Z,31.77
2022-09-07T21:33:30.981Z,37.55
2022-09-07T21:36:02.458Z,34.08
2022-09-07T21:38:32.637Z,33.75
2022-09-07T21:41:07.006Z,33.42
2022-09-07T21:43:38.550Z,32.15
2022-09-07T21:46:09.749Z,34.58
2022-09-07T21:48:40.383Z,32.98
2022-09-07T21:51:11.472Z,35.43
2022-09-07T21:53:42.513Z,33.13
2022-09-07T21:56:13.895Z,33.75
2022-09-07T21:58:44.787Z,34.38
2022-09-07T22:01:19.873Z,30.82
2022-09-07T22:03:50.902Z,31.57
2022-09-07T22:06:20.879Z,32.85
2022-09-07T22:08:54.088Z,30.70
2022-09-07T22:11:25.027Z,29.85
2022-09-07T22:13:59.880Z,29.32
2022-09-07T22:16:30.468Z,29.52
2022-09-07T22:19:03.113Z,30.52
2022-09-07T22:21:33.388Z,32.10
2022-09-07T22:24:04.919Z,32.65
2022-09-07T22:26:37.424Z,32.25
2022-09-07T22:29:08.695Z,31.07
2022-09-07T22:31:39.465Z,30.23
2022-09-07T22:34:10.556Z,30.88
2022-09-07T22:36:41.905Z,28.95
2022-09-07T22:39:13.199Z,29.72
2022-09-07T22:41:44.037Z,28.92
2022-09-07T22:44:16.245Z,29.67
2022-09-07T22:46:47.766Z,29.98
2022-09-07T22:49:18.762Z,29.72
2022-09-07T22:51:49.370Z,28.83
2022-09-07T22:54:19.383Z,31.90
2022-09-07T22:56:49.460Z,41.98
2022-09-07T22:59:19.576Z,35.78
2022-09-07T23:01:50.730Z,33.95
2022-09-07T23:04:21.315Z,35.80
2022-09-07T23:06:52.553Z,33.40
2022-09-07T23:09:25.740Z,32.03
2022-09-07T23:11:55.742Z,30.25
2022-09-07T23:14:25.885Z,31.30
2022-09-07T23:16:57.322Z,32.65
2022-09-07T23:19:30.418Z,32.17
2022-09-07T23:22:01.970Z,35.48
2022-09-07T23:24:32.602Z,32.10
2022-09-07T23:27:02.725Z,31.27
2022-09-07T23:29:33.048Z,32.78
2022-09-07T23:32:10.674Z,31.62
2022-09-07T23:34:40.927Z,32.53
2022-09-07T23:37:11.218Z,33.92
2022-09-07T23:39:42.932Z,37.08
2022-09-07T23:42:13.784Z,44.48
2022-09-07T23:44:45.284Z,43.65
2022-09-07T23:47:15.351Z,39.03
2022-09-07T23:49:45.681Z,38.58
2022-09-07T23:52:15.726Z,34.90
2022-09-07T23:54:45.899Z,30.82
2022-09-07T23:57:16.071Z,31.37
2022-09-07T23:59:46.190Z,29.67
